Time;durP1;ratioP1;P1;durP2;ratioP2;P2;SDS_P1;SDS_P2;PMS_P1;PMS_P2;Temp;Humidity;BMP_temperature;BMP_pressure;BME280_temperature;BME280_humidity;BME280_pressure;Samples;Min_cycle;Max_cycle;Signal;HPM_P1;HPM_P2
2022/02/18 00:01:05;;;;;;;0.70;0.50;;;8.20;99.90;;;;;;5039310;28;20819;-70
2022/02/18 00:03:31;;;;;;;1.67;1.07;;;8.20;99.90;;;;;;5047210;28;20418;-70
2022/02/18 00:05:57;;;;;;;0.70;0.50;;;8.20;99.90;;;;;;5050757;28;20421;-69
2022/02/18 00:08:24;;;;;;;1.43;1.33;;;8.30;99.90;;;;;;5051602;28;20444;-70
2022/02/18 00:10:50;;;;;;;0.70;0.50;;;8.30;99.90;;;;;;5041760;28;20454;-69
2022/02/18 00:13:16;;;;;;;0.70;0.50;;;8.30;99.90;;;;;;5031470;28;20402;-69
2022/02/18 00:15:42;;;;;;;0.70;0.50;;;8.40;99.90;;;;;;5031712;28;20176;-69
2022/02/18 00:18:08;;;;;;;1.13;1.03;;;8.40;99.90;;;;;;5041800;28;20472;-69
2022/02/18 00:20:35;;;;;;;0.70;0.60;;;8.40;99.90;;;;;;5033355;28;20439;-69
2022/02/18 00:23:05;;;;;;;0.70;0.50;;;8.50;99.90;;;;;;5043349;28;20721;-69
2022/02/18 00:25:32;;;;;;;0.70;0.50;;;8.50;99.90;;;;;;5039925;28;20433;-69
2022/02/18 00:28:00;;;;;;;0.70;0.50;;;8.50;99.90;;;;;;5051413;28;20406;-69
2022/02/18 00:30:26;;;;;;;0.70;0.50;;;8.50;99.90;;;;;;5048937;28;20988;-68
2022/02/18 00:32:52;;;;;;;0.97;0.97;;;8.60;99.90;;;;;;5051138;28;20489;-68
2022/02/18 00:35:19;;;;;;;0.80;0.60;;;8.60;99.90;;;;;;5049525;28;20520;-69
2022/02/18 00:37:54;;;;;;;0.70;0.50;;;8.60;99.90;;;;;;5040478;28;20194;-69
2022/02/18 00:40:21;;;;;;;0.70;0.50;;;8.70;99.90;;;;;;5038948;28;20445;-69
2022/02/18 00:42:47;;;;;;;0.70;0.50;;;8.70;99.90;;;;;;5045382;28;20429;-68
2022/02/18 00:45:13;;;;;;;1.13;1.03;;;8.70;99.90;;;;;;5054688;28;20432;-69
2022/02/18 00:47:39;;;;;;;0.90;0.60;;;8.70;99.90;;;;;;5053164;28;20516;-69
2022/02/18 00:50:05;;;;;;;0.70;0.50;;;8.70;99.90;;;;;;5054851;28;20195;-69
2022/02/18 00:52:30;;;;;;;0.80;0.60;;;8.70;99.90;;;;;;5033742;28;20273;-70
2022/02/18 00:54:56;;;;;;;0.70;0.50;;;8.70;99.90;;;;;;5053287;28;20512;-67
2022/02/18 00:57:22;;;;;;;0.70;0.50;;;8.70;99.90;;;;;;5047242;28;20171;-68
2022/02/18 00:59:48;;;;;;;0.70;0.70;;;8.80;99.90;;;;;;5052944;28;20714;-68
2022/02/18 01:02:13;;;;;;;0.70;0.50;;;8.80;99.90;;;;;;5054451;28;20242;-68
2022/02/18 01:04:39;;;;;;;1.20;1.00;;;8.80;99.90;;;;;;5046762;28;20512;-68
2022/02/18 01:07:05;;;;;;;0.70;0.50;;;8.80;99.90;;;;;;5037191;28;20186;-68
2022/02/18 01:09:31;;;;;;;0.70;0.50;;;8.90;99.90;;;;;;5052627;28;20175;-69
2022/02/18 01:11:57;;;;;;;0.70;0.60;;;8.80;99.90;;;;;;5053571;28;20445;-69
2022/02/18 01:14:23;;;;;;;0.70;0.50;;;8.90;99.90;;;;;;5054446;28;20914;-68
2022/02/18 01:16:49;;;;;;;0.70;0.50;;;8.90;99.90;;;;;;5054346;28;20536;-68
2022/02/18 01:19:14;;;;;;;0.70;0.50;;;8.90;99.90;;;;;;5038405;28;20449;-69
2022/02/18 01:21:40;;;;;;;24.23;1.63;;;8.90;99.90;;;;;;5041435;28;20245;-69
2022/02/18 01:24:06;;;;;;;0.70;0.43;;;8.90;99.90;;;;;;5039005;28;20704;-69
2022/02/18 01:26:33;;;;;;;0.70;0.50;;;8.90;99.90;;;;;;5034171;28;20175;-70
2022/02/18 01:28:59;;;;;;;0.70;0.50;;;8.90;99.90;;;;;;5034198;28;20739;-69
2022/02/18 01:31:25;;;;;;;3.03;0.70;;;8.90;99.90;;;;;;5034894;28;20452;-69
2022/02/18 01:33:55;;;;;;;0.70;0.50;;;8.80;99.90;;;;;;5038794;28;20424;-69
2022/02/18 01:36:25;;;;;;;0.70;0.50;;;8.80;99.90;;;;;;5041041;28;20877;-69
2022/02/18 01:38:51;;;;;;;0.80;0.60;;;8.70;99.90;;;;;;5034003;28;20466;-70
2022/02/18 01:41:18;;;;;;;0.70;0.50;;;8.70;99.90;;;;;;5033550;28;20426;-69
2022/02/18 01:43:55;;;;;;;0.90;0.90;;;8.70;99.90;;;;;;5032321;28;20477;-70
2022/02/18 01:46:21;;;;;;;0.70;0.50;;;8.70;99.90;;;;;;5018883;28;20422;-69
2022/02/18 01:48:48;;;;;;;0.70;0.50;;;8.70;99.90;;;;;;5018067;28;20438;-69
2022/02/18 01:51:17;;;;;;;0.70;0.50;;;8.60;99.90;;;;;;5028247;28;20469;-69
2022/02/18 01:53:43;;;;;;;1.00;0.87;;;8.70;99.90;;;;;;5013660;28;20423;-69
2022/02/18 01:56:09;;;;;;;0.70;0.50;;;8.70;99.90;;;;;;5030574;28;20438;-69
2022/02/18 01:58:35;;;;;;;1.03;0.93;;;8.60;99.90;;;;;;5033721;28;20442;-68
2022/02/18 02:01:00;;;;;;;3.93;2.83;;;8.70;99.90;;;;;;5036894;28;20197;-68
2022/02/18 02:03:26;;;;;;;0.70;0.50;;;8.70;99.90;;;;;;5036781;28;20433;-69
2022/02/18 02:05:55;;;;;;;0.70;0.50;;;8.70;99.90;;;;;;5037618;28;20175;-68
2022/02/18 02:08:22;;;;;;;0.70;0.50;;;8.70;99.90;;;;;;5033628;28;20171;-67
2022/02/18 02:10:47;;;;;;;0.70;0.50;;;8.70;99.90;;;;;;5033181;28;20438;-68
2022/02/18 02:13:33;;;;;;;1.17;1.07;;;8.70;99.90;;;;;;5034849;28;20418;-70
2022/02/18 02:15:59;;;;;;;0.70;0.50;;;8.70;99.90;;;;;;5034098;28;20159;-70
2022/02/18 02:18:25;;;;;;;0.70;0.50;;;8.70;99.90;;;;;;5034065;28;20820;-69
2022/02/18 02:20:51;;;;;;;0.70;0.50;;;8.70;99.90;;;;;;5034242;28;20438;-70
2022/02/18 02:23:18;;;;;;;0.70;0.60;;;8.70;99.90;;;;;;5031740;28;20532;-69
2022/02/18 02:25:44;;;;;;;0.70;0.50;;;8.80;99.90;;;;;;5032258;28;20879;-68
2022/02/18 02:28:09;;;;;;;0.70;0.50;;;8.80;99.90;;;;;;5019217;28;20501;-68
2022/02/18 02:30:35;;;;;;;0.70;0.50;;;8.80;99.90;;;;;;5026797;28;20538;-68
2022/02/18 02:33:01;;;;;;;0.70;0.50;;;8.90;99.90;;;;;;5026066;28;20169;-69
2022/02/18 02:35:26;;;;;;;1.87;0.70;;;8.90;99.90;;;;;;5032614;28;20640;-68
2022/02/18 02:37:52;;;;;;;0.70;0.50;;;8.90;99.90;;;;;;5032853;28;20270;-68
2022/02/18 02:40:19;;;;;;;0.80;0.70;;;8.90;99.90;;;;;;5032720;28;20192;-69
2022/02/18 02:42:46;;;;;;;0.70;0.50;;;9.00;99.90;;;;;;5052473;28;20167;-69
2022/02/18 02:45:11;;;;;;;0.70;0.50;;;8.90;99.90;;;;;;5039422;28;20428;-68
2022/02/18 02:47:44;;;;;;;0.80;0.70;;;9.00;99.90;;;;;;5028947;28;20867;-67
2022/02/18 02:50:10;;;;;;;0.70;0.60;;;8.90;99.90;;;;;;5032490;28;20221;-67
2022/02/18 02:52:36;;;;;;;0.80;0.60;;;8.90;99.90;;;;;;5031044;28;20509;-69
2022/02/18 02:55:03;;;;;;;1.67;1.57;;;9.00;99.90;;;;;;5027520;28;20221;-67
2022/02/18 02:57:28;;;;;;;0.70;0.50;;;9.00;99.90;;;;;;5013671;28;20920;-69
2022/02/18 02:59:54;;;;;;;0.70;0.50;;;8.90;99.90;;;;;;5037457;28;20547;-68
2022/02/18 03:02:20;;;;;;;0.70;0.50;;;9.00;99.90;;;;;;5026301;28;20509;-68
2022/02/18 03:04:45;;;;;;;0.70;0.50;;;9.00;99.90;;;;;;5032445;28;22212;-69
2022/02/18 03:07:11;;;;;;;1.00;0.70;;;8.90;99.90;;;;;;5033325;28;20174;-69
2022/02/18 03:09:36;;;;;;;0.70;0.50;;;8.90;99.90;;;;;;5029199;28;20179;-69
2022/02/18 03:12:02;;;;;;;1.27;1.17;;;8.90;99.90;;;;;;5031445;28;20227;-69
2022/02/18 03:14:28;;;;;;;0.70;0.50;;;8.90;99.90;;;;;;5032146;28;20178;-68
2022/02/18 03:16:53;;;;;;;0.70;0.50;;;8.90;99.90;;;;;;5032926;28;20170;-68
2022/02/18 03:19:19;;;;;;;0.70;0.50;;;8.90;99.90;;;;;;5031636;28;20234;-68
2022/02/18 03:21:44;;;;;;;1.67;1.57;;;8.90;99.90;;;;;;5012233;28;20195;-68
2022/02/18 03:24:10;;;;;;;0.70;0.50;;;8.90;99.90;;;;;;5024969;28;20644;-68
2022/02/18 03:26:35;;;;;;;0.80;0.70;;;8.90;99.90;;;;;;5032307;28;20568;-67
2022/02/18 03:29:01;;;;;;;0.70;0.50;;;8.90;99.90;;;;;;5032319;28;20580;-67
2022/02/18 03:31:27;;;;;;;0.80;0.70;;;8.90;99.90;;;;;;5032121;28;20187;-68
2022/02/18 03:33:52;;;;;;;0.70;0.70;;;8.90;99.90;;;;;;5031275;28;20164;-67
2022/02/18 03:36:18;;;;;;;0.70;0.50;;;8.90;99.90;;;;;;5021814;28;20234;-69
2022/02/18 03:38:43;;;;;;;0.70;0.50;;;8.80;99.90;;;;;;5013302;28;20258;-70
2022/02/18 03:41:09;;;;;;;0.70;0.50;;;8.80;99.90;;;;;;5052349;28;20671;-69
2022/02/18 03:43:35;;;;;;;0.70;0.50;;;8.80;99.90;;;;;;5052270;28;20201;-68
2022/02/18 03:46:01;;;;;;;0.70;0.50;;;8.90;99.90;;;;;;5045167;28;20168;-69
2022/02/18 03:48:27;;;;;;;0.70;0.50;;;8.90;99.90;;;;;;5012993;28;20172;-69
2022/02/18 03:50:52;;;;;;;0.70;0.50;;;8.90;99.90;;;;;;5013453;28;20939;-69
2022/02/18 03:53:18;;;;;;;0.70;0.50;;;8.90;99.90;;;;;;5014320;28;20218;-68
2022/02/18 03:55:43;;;;;;;0.70;0.60;;;8.90;99.90;;;;;;5036192;28;20234;-67
2022/02/18 03:58:09;;;;;;;0.70;0.50;;;8.90;99.90;;;;;;5027644;28;20261;-68
2022/02/18 04:00:35;;;;;;;0.70;0.40;;;8.90;99.90;;;;;;5025256;28;20530;-67
2022/02/18 04:03:01;;;;;;;0.70;0.50;;;9.00;99.90;;;;;;5011966;28;20165;-68
2022/02/18 04:05:26;;;;;;;0.70;0.50;;;8.90;99.90;;;;;;5025829;28;20799;-70
2022/02/18 04:07:53;;;;;;;0.70;0.50;;;9.00;99.90;;;;;;5040139;28;20435;-67
2022/02/18 04:10:18;;;;;;;0.70;0.47;;;9.00;99.90;;;;;;5038071;28;20303;-68
2022/02/18 04:12:44;;;;;;;1.00;0.77;;;9.00;99.90;;;;;;5022923;28;20445;-67
2022/02/18 04:15:09;;;;;;;0.70;0.47;;;9.00;99.90;;;;;;5032836;28;20183;-69
2022/02/18 04:17:35;;;;;;;0.70;0.50;;;8.90;99.90;;;;;;5036222;28;20203;-69
2022/02/18 04:20:00;;;;;;;0.70;0.50;;;9.00;99.90;;;;;;5030772;28;20231;-70
2022/02/18 04:22:26;;;;;;;0.70;0.40;;;9.00;99.90;;;;;;5035890;28;20167;-70
2022/02/18 04:24:52;;;;;;;0.70;0.50;;;9.00;99.90;;;;;;5034327;28;20172;-68
2022/02/18 04:27:18;;;;;;;0.70;0.50;;;9.00;99.90;;;;;;5035785;28;20251;-69
2022/02/18 04:29:44;;;;;;;0.70;0.50;;;9.10;99.90;;;;;;5043746;28;20630;-69
2022/02/18 04:32:10;;;;;;;0.70;0.40;;;9.10;99.90;;;;;;5054379;28;20194;-71
2022/02/18 04:34:36;;;;;;;0.70;0.50;;;9.10;99.90;;;;;;5045068;28;20972;-69
2022/02/18 04:37:01;;;;;;;0.70;0.50;;;9.10;99.90;;;;;;5036142;28;20410;-69
2022/02/18 04:39:27;;;;;;;0.80;0.60;;;9.10;99.90;;;;;;5035752;28;20227;-70
2022/02/18 04:41:52;;;;;;;0.70;0.50;;;9.10;99.90;;;;;;5035627;28;20227;-69
2022/02/18 04:44:18;;;;;;;1.73;1.63;;;9.20;99.90;;;;;;5035534;28;20222;-70
2022/02/18 04:46:44;;;;;;;0.70;0.50;;;9.20;99.90;;;;;;5016463;28;20748;-70
2022/02/18 04:49:10;;;;;;;0.80;0.70;;;9.20;99.90;;;;;;5016854;28;20184;-70
2022/02/18 04:51:37;;;;;;;0.70;0.50;;;9.30;99.90;;;;;;5014691;28;20525;-71
2022/02/18 04:54:07;;;;;;;0.70;0.50;;;9.30;99.90;;;;;;5025889;28;20552;-70
2022/02/18 04:56:33;;;;;;;1.23;0.93;;;9.30;99.90;;;;;;5035082;28;21026;-68
2022/02/18 04:58:59;;;;;;;0.70;0.50;;;9.30;99.90;;;;;;5034805;28;20445;-69
2022/02/18 05:01:25;;;;;;;0.70;0.50;;;9.30;99.90;;;;;;5034051;28;20410;-69
2022/02/18 05:03:52;;;;;;;1.67;0.87;;;9.30;99.90;;;;;;5031770;28;20908;-70
2022/02/18 05:06:18;;;;;;;0.80;0.70;;;9.30;99.90;;;;;;5030944;28;20490;-70
2022/02/18 05:08:43;;;;;;;1.17;1.07;;;9.20;99.90;;;;;;5035928;28;20438;-70
2022/02/18 05:11:12;;;;;;;0.70;0.50;;;9.30;99.90;;;;;;5035311;28;20931;-69
2022/02/18 05:13:38;;;;;;;1.83;1.47;;;9.30;99.90;;;;;;5033455;28;20278;-69
2022/02/18 05:16:04;;;;;;;0.70;0.50;;;9.30;99.90;;;;;;5034902;28;20935;-70
2022/02/18 05:18:30;;;;;;;0.70;0.50;;;9.30;99.90;;;;;;5033667;28;20184;-70
2022/02/18 05:20:56;;;;;;;0.70;0.50;;;9.30;99.90;;;;;;5038348;28;20445;-69
2022/02/18 05:23:22;;;;;;;0.70;0.50;;;9.30;99.90;;;;;;5040917;28;20440;-69
2022/02/18 05:25:48;;;;;;;0.70;0.50;;;9.40;99.90;;;;;;5033083;28;20907;-67
2022/02/18 05:28:15;;;;;;;0.70;0.50;;;9.40;99.90;;;;;;5029230;28;21015;-68
2022/02/18 05:30:41;;;;;;;0.70;0.60;;;9.40;99.90;;;;;;5027343;28;20234;-68
2022/02/18 05:33:07;;;;;;;0.70;0.50;;;9.40;99.90;;;;;;5038042;28;20461;-70
2022/02/18 05:35:32;;;;;;;0.70;0.50;;;9.40;99.90;;;;;;5038479;28;20521;-68
2022/02/18 05:37:58;;;;;;;0.70;0.50;;;9.40;99.90;;;;;;5031797;28;20191;-68
2022/02/18 05:40:23;;;;;;;1.00;0.93;;;9.50;99.90;;;;;;5033937;28;20271;-68
2022/02/18 05:42:49;;;;;;;0.70;0.50;;;9.50;99.90;;;;;;5027288;28;20172;-68
2022/02/18 05:45:15;;;;;;;0.70;0.50;;;9.50;99.90;;;;;;5018969;28;20600;-68
2022/02/18 05:47:41;;;;;;;1.07;0.93;;;9.50;99.90;;;;;;5032573;28;20226;-69
2022/02/18 05:50:10;;;;;;;0.70;0.50;;;9.60;99.90;;;;;;5033796;28;20164;-69
2022/02/18 05:52:37;;;;;;;1.53;0.83;;;9.60;99.90;;;;;;5031050;28;20808;-69
2022/02/18 05:55:04;;;;;;;0.70;0.50;;;9.60;99.90;;;;;;5026107;28;20444;-70
2022/02/18 05:57:29;;;;;;;0.70;0.43;;;9.60;99.90;;;;;;5040738;28;20437;-70
2022/02/18 05:59:55;;;;;;;0.70;0.50;;;9.70;99.90;;;;;;5033799;28;20434;-69
2022/02/18 06:02:20;;;;;;;0.70;0.40;;;9.70;99.90;;;;;;5034066;28;20242;-69
2022/02/18 06:04:46;;;;;;;0.87;0.77;;;9.70;99.90;;;;;;5034273;28;20221;-69
2022/02/18 06:07:11;;;;;;;1.10;0.80;;;9.70;99.90;;;;;;5034357;28;20536;-70
2022/02/18 06:09:37;;;;;;;0.70;0.50;;;9.60;99.90;;;;;;5030788;28;20192;-70
2022/02/18 06:12:03;;;;;;;0.70;0.50;;;9.60;99.90;;;;;;5017498;28;20191;-69
2022/02/18 06:14:28;;;;;;;0.70;0.50;;;9.60;99.90;;;;;;5028829;28;20184;-69
2022/02/18 06:16:54;;;;;;;0.70;0.50;;;9.60;99.90;;;;;;5017798;28;20406;-69
2022/02/18 06:19:19;;;;;;;0.70;0.50;;;9.60;99.90;;;;;;5033275;28;20195;-70
2022/02/18 06:21:45;;;;;;;0.70;0.50;;;9.50;99.90;;;;;;5033141;28;20187;-69
2022/02/18 06:24:10;;;;;;;0.70;0.50;;;9.50;99.90;;;;;;5033038;28;20172;-69
2022/02/18 06:26:36;;;;;;;0.70;0.50;;;9.50;99.90;;;;;;5029836;28;20731;-71
2022/02/18 06:29:03;;;;;;;0.70;0.50;;;9.50;99.90;;;;;;5026227;28;20202;-70
2022/02/18 06:31:29;;;;;;;1.63;1.53;;;9.50;99.90;;;;;;5034026;28;20234;-69
2022/02/18 06:33:54;;;;;;;2.40;2.20;;;9.50;99.90;;;;;;5036256;28;21101;-68
2022/02/18 06:36:20;;;;;;;0.70;0.50;;;9.50;99.90;;;;;;5032911;28;20410;-67
2022/02/18 06:38:46;;;;;;;0.70;0.50;;;9.50;99.90;;;;;;5035108;28;20282;-67
2022/02/18 06:41:11;;;;;;;0.70;0.50;;;9.50;99.90;;;;;;5032536;28;20230;-67
2022/02/18 06:43:37;;;;;;;1.13;0.70;;;9.50;99.90;;;;;;5031165;28;20175;-67
2022/02/18 06:46:03;;;;;;;0.80;0.80;;;9.50;99.90;;;;;;5033221;28;20411;-70
2022/02/18 06:48:29;;;;;;;0.70;0.50;;;9.50;99.90;;;;;;5041707;28;20432;-69
2022/02/18 06:50:54;;;;;;;0.70;0.50;;;9.50;99.90;;;;;;5044755;28;20203;-68
2022/02/18 06:53:20;;;;;;;0.80;0.70;;;9.50;99.90;;;;;;5029656;28;20191;-68
2022/02/18 06:55:46;;;;;;;0.70;0.50;;;9.50;99.90;;;;;;5034718;28;20219;-69
2022/02/18 06:58:12;;;;;;;0.80;0.73;;;9.50;99.90;;;;;;5045316;28;20222;-68
2022/02/18 07:00:37;;;;;;;0.70;0.50;;;9.60;99.90;;;;;;5028833;28;21200;-69
2022/02/18 07:03:04;;;;;;;0.70;0.50;;;9.60;99.90;;;;;;5027668;28;20545;-70
2022/02/18 07:05:30;;;;;;;1.10;1.00;;;9.60;99.90;;;;;;5043996;28;20197;-69
2022/02/18 07:07:56;;;;;;;0.70;0.50;;;9.60;99.90;;;;;;5052279;28;20409;-69
2022/02/18 07:10:21;;;;;;;0.70;0.50;;;9.60;99.90;;;;;;5027000;28;20526;-69
2022/02/18 07:12:47;;;;;;;0.70;0.50;;;9.60;99.90;;;;;;5023465;28;20211;-69
2022/02/18 07:15:12;;;;;;;0.70;0.50;;;9.50;99.90;;;;;;5032602;28;20580;-69
2022/02/18 07:17:38;;;;;;;0.70;0.50;;;9.50;99.90;;;;;;5030632;28;20187;-70
2022/02/18 07:20:07;;;;;;;0.80;0.70;;;9.50;99.90;;;;;;5013473;28;20239;-68
2022/02/18 07:22:35;;;;;;;1.00;1.00;;;9.50;99.90;;;;;;5012250;28;20199;-69
2022/02/18 07:25:01;;;;;;;0.90;0.70;;;9.60;99.90;;;;;;5019754;28;20430;-69
2022/02/18 07:27:26;;;;;;;1.10;1.00;;;9.70;99.90;;;;;;5034754;28;20772;-69
2022/02/18 07:29:52;;;;;;;1.43;1.33;;;9.70;99.90;;;;;;5033491;28;20544;-69
2022/02/18 07:32:20;;;;;;;0.90;0.77;;;9.80;99.90;;;;;;5033265;28;20174;-69
2022/02/18 07:34:45;;;;;;;0.70;0.50;;;9.80;99.90;;;;;;5034951;28;20173;-69
2022/02/18 07:37:11;;;;;;;0.80;0.60;;;9.90;99.90;;;;;;5031934;28;20427;-69
2022/02/18 07:39:38;;;;;;;0.70;0.50;;;10.00;99.90;;;;;;5030054;28;20238;-69
2022/02/18 07:42:03;;;;;;;0.70;0.50;;;10.00;99.90;;;;;;5029197;28;20195;-69
2022/02/18 07:44:29;;;;;;;0.70;0.50;;;10.10;99.90;;;;;;5029864;28;20794;-69
2022/02/18 07:46:55;;;;;;;0.70;0.50;;;10.10;99.90;;;;;;5031700;28;20171;-67
2022/02/18 07:49:20;;;;;;;0.70;0.50;;;10.20;99.90;;;;;;5032862;28;20228;-68
2022/02/18 07:51:46;;;;;;;0.80;0.73;;;10.30;99.90;;;;;;5034739;28;20195;-69
2022/02/18 07:54:11;;;;;;;0.70;0.50;;;10.40;99.90;;;;;;5036157;28;20662;-70
2022/02/18 07:56:37;;;;;;;1.53;0.83;;;10.40;99.90;;;;;;5034306;28;20184;-71
2022/02/18 07:59:02;;;;;;;0.90;0.90;;;10.50;99.90;;;;;;5042298;28;20826;-71
2022/02/18 08:01:28;;;;;;;0.70;0.50;;;10.50;99.90;;;;;;5032616;28;20709;-70
2022/02/18 08:03:54;;;;;;;0.70;0.50;;;10.50;99.90;;;;;;5041736;28;20172;-69
2022/02/18 08:06:20;;;;;;;0.70;0.50;;;10.50;99.90;;;;;;5034554;28;20171;-70
2022/02/18 08:08:46;;;;;;;0.70;0.50;;;10.60;99.90;;;;;;5031503;28;20195;-69
2022/02/18 08:11:13;;;;;;;0.70;0.50;;;10.60;99.90;;;;;;5018918;28;20525;-69
2022/02/18 08:13:39;;;;;;;0.70;0.50;;;10.70;99.90;;;;;;5036175;28;20426;-70
2022/02/18 08:16:05;;;;;;;0.80;0.70;;;10.80;99.90;;;;;;5035312;28;20418;-70
2022/02/18 08:18:30;;;;;;;1.00;0.90;;;10.80;99.90;;;;;;5036599;28;20204;-70
2022/02/18 08:20:56;;;;;;;1.17;1.00;;;10.90;99.90;;;;;;5036543;28;20433;-69
2022/02/18 08:23:22;;;;;;;0.70;0.50;;;11.00;99.90;;;;;;5036270;28;20166;-70
2022/02/18 08:25:48;;;;;;;0.70;0.50;;;11.00;99.90;;;;;;5036038;28;20179;-70
2022/02/18 08:28:16;;;;;;;0.70;0.50;;;11.10;99.90;;;;;;5030419;28;20186;-69
2022/02/18 08:30:42;;;;;;;0.70;0.50;;;11.10;99.90;;;;;;5027100;28;20776;-69
2022/02/18 08:33:07;;;;;;;0.70;0.50;;;11.10;99.90;;;;;;5034872;28;20564;-69
2022/02/18 08:35:33;;;;;;;0.70;0.50;;;11.30;99.90;;;;;;5042102;28;20183;-69
2022/02/18 08:38:00;;;;;;;0.70;0.50;;;11.30;99.90;;;;;;5034129;28;20242;-69
2022/02/18 08:40:25;;;;;;;0.80;0.80;;;11.30;99.90;;;;;;5035610;28;20599;-69
2022/02/18 08:42:51;;;;;;;1.27;1.17;;;11.40;99.90;;;;;;5032723;28;20434;-70
2022/02/18 08:45:17;;;;;;;0.70;0.60;;;11.40;99.90;;;;;;5041782;28;20625;-69
2022/02/18 08:47:43;;;;;;;0.70;0.50;;;11.50;99.90;;;;;;5033205;28;20716;-69
2022/02/18 08:50:09;;;;;;;0.70;0.50;;;11.60;99.90;;;;;;5044466;28;21002;-69
2022/02/18 08:52:36;;;;;;;0.70;0.50;;;11.60;99.90;;;;;;5036356;28;20525;-69
2022/02/18 08:55:04;;;;;;;0.70;0.50;;;11.70;99.90;;;;;;5038021;28;20449;-70
2022/02/18 08:57:30;;;;;;;0.70;0.50;;;11.80;99.90;;;;;;5036288;28;20417;-70
2022/02/18 08:59:56;;;;;;;0.80;0.60;;;11.80;99.90;;;;;;5034242;28;20988;-69
2022/02/18 09:02:24;;;;;;;0.70;0.50;;;11.80;99.90;;;;;;5043571;28;20445;-70
2022/02/18 09:04:51;;;;;;;0.70;0.50;;;11.90;99.90;;;;;;5040239;28;20648;-70
2022/02/18 09:07:16;;;;;;;0.70;0.50;;;11.90;99.90;;;;;;5040322;28;20506;-70
2022/02/18 09:09:42;;;;;;;0.70;0.53;;;12.00;99.90;;;;;;5028437;28;20515;-70
2022/02/18 09:12:08;;;;;;;0.70;0.50;;;12.00;99.90;;;;;;5048094;28;20203;-70
2022/02/18 09:14:33;;;;;;;0.70;0.50;;;12.10;99.90;;;;;;5042856;28;20302;-70
2022/02/18 09:16:59;;;;;;;0.70;0.50;;;12.20;99.90;;;;;;5035000;28;20179;-68
2022/02/18 09:19:24;;;;;;;0.70;0.50;;;12.20;99.90;;;;;;5035713;28;20553;-69
2022/02/18 09:21:50;;;;;;;0.70;0.50;;;12.20;99.90;;;;;;5037268;28;20668;-68
2022/02/18 09:24:16;;;;;;;0.70;0.50;;;12.30;99.90;;;;;;5037197;28;20294;-68
2022/02/18 09:26:42;;;;;;;0.70;0.50;;;12.40;99.90;;;;;;5034873;28;20168;-70
2022/02/18 09:29:07;;;;;;;0.70;0.50;;;12.40;99.90;;;;;;5031641;28;20799;-70
2022/02/18 09:31:33;;;;;;;0.70;0.50;;;12.50;99.90;;;;;;5048914;28;20191;-71
2022/02/18 09:33:59;;;;;;;0.70;0.50;;;12.60;99.90;;;;;;5038667;28;20186;-70
2022/02/18 09:36:24;;;;;;;0.70;0.50;;;12.70;99.90;;;;;;5034835;28;20187;-70
2022/02/18 09:38:50;;;;;;;0.80;0.67;;;12.80;99.90;;;;;;5033473;28;20226;-70
2022/02/18 09:41:15;;;;;;;0.97;0.63;;;12.90;99.90;;;;;;5035297;28;20207;-70
2022/02/18 09:43:41;;;;;;;0.70;0.50;;;13.00;99.90;;;;;;5031356;28;20181;-70
2022/02/18 09:46:07;;;;;;;0.70;0.50;;;13.10;99.90;;;;;;5032893;28;20175;-70
2022/02/18 09:48:35;;;;;;;0.70;0.60;;;13.20;99.90;;;;;;5037751;28;20653;-70
2022/02/18 09:51:02;;;;;;;0.70;0.50;;;13.30;99.90;;;;;;5039446;28;20521;-70
2022/02/18 09:53:27;;;;;;;0.70;0.50;;;13.40;99.90;;;;;;5036213;28;20446;-70
2022/02/18 09:55:55;;;;;;;0.70;0.50;;;13.50;99.90;;;;;;5038336;28;20779;-70
2022/02/18 09:58:22;;;;;;;0.70;0.50;;;13.60;99.90;;;;;;5045801;28;20225;-70
2022/02/18 10:00:51;;;;;;;0.70;0.50;;;13.60;99.90;;;;;;5033240;28;20498;-70
2022/02/18 10:03:17;;;;;;;0.70;0.50;;;13.70;99.90;;;;;;5044051;28;20421;-70
2022/02/18 10:05:43;;;;;;;0.70;0.50;;;13.80;99.90;;;;;;5032339;28;20434;-69
2022/02/18 10:08:18;;;;;;;0.70;0.50;;;13.80;99.90;;;;;;5025798;28;20692;-70
2022/02/18 10:11:02;;;;;;;0.70;0.50;;;13.90;99.90;;;;;;5031438;28;20442;-68
2022/02/18 10:13:37;;;;;;;2.10;0.70;;;14.00;99.90;;;;;;5030814;28;20429;-69
2022/02/18 10:16:04;;;;;;;0.70;0.50;;;14.00;99.90;;;;;;5032720;28;20421;-69
2022/02/18 10:18:45;;;;;;;0.70;0.50;;;14.00;99.90;;;;;;5033794;28;20442;-69
2022/02/18 10:21:34;;;;;;;0.70;0.50;;;14.10;99.90;;;;;;5043698;28;20438;-69
2022/02/18 10:24:07;;;;;;;0.70;0.50;;;14.20;99.90;;;;;;5053240;28;20398;-70
2022/02/18 10:26:41;;;;;;;0.70;0.50;;;14.20;99.90;;;;;;5052366;28;20406;-71
2022/02/18 10:29:09;;;;;;;0.70;0.50;;;14.30;99.90;;;;;;5048270;28;20476;-70
2022/02/18 10:31:36;;;;;;;0.87;0.60;;;14.40;99.90;;;;;;5045190;28;20456;-69
2022/02/18 10:34:07;;;;;;;0.70;0.50;;;14.60;99.90;;;;;;5052930;28;20405;-70
2022/02/18 10:36:44;;;;;;;0.70;0.50;;;14.70;99.90;;;;;;5053298;28;20488;-70
2022/02/18 10:39:25;;;;;;;0.70;0.50;;;14.90;99.90;;;;;;5050986;28;20483;-69
2022/02/18 10:42:01;;;;;;;0.70;0.50;;;15.00;99.90;;;;;;5053104;28;20998;-70
2022/02/18 10:44:29;;;;;;;0.70;0.50;;;14.90;99.90;;;;;;5035802;28;20517;-71
2022/02/18 10:46:55;;;;;;;0.70;0.50;;;15.10;99.90;;;;;;5033112;28;20900;-70
2022/02/18 10:49:22;;;;;;;0.70;0.50;;;15.20;99.90;;;;;;5033305;28;20414;-71
2022/02/18 10:51:50;;;;;;;0.70;0.50;;;15.20;99.90;;;;;;5032709;28;20799;-69
2022/02/18 10:54:16;;;;;;;0.70;0.50;;;15.30;99.90;;;;;;5032606;28;20986;-68
2022/02/18 10:56:42;;;;;;;0.70;0.50;;;15.30;99.90;;;;;;5051452;28;20426;-70
2022/02/18 10:59:08;;;;;;;0.70;0.50;;;15.40;99.90;;;;;;5039334;28;20469;-70
2022/02/18 11:01:44;;;;;;;0.70;0.50;;;15.40;99.90;;;;;;5032995;28;20461;-69
2022/02/18 11:04:11;;;;;;;0.70;0.50;;;15.50;99.90;;;;;;5044998;28;20898;-71
2022/02/18 11:06:37;;;;;;;0.70;0.50;;;15.50;99.90;;;;;;5052871;28;20481;-69
2022/02/18 11:09:10;;;;;;;0.70;0.50;;;15.50;99.90;;;;;;5052752;28;20401;-69
2022/02/18 11:11:44;;;;;;;0.70;0.50;;;15.50;99.90;;;;;;5051533;28;20426;-69
2022/02/18 11:14:12;;;;;;;0.70;0.50;;;15.50;99.90;;;;;;5052465;28;20767;-69
2022/02/18 11:16:41;;;;;;;0.70;0.50;;;15.50;99.90;;;;;;5050312;28;20397;-69
2022/02/18 11:19:06;;;;;;;0.70;0.50;;;15.40;99.90;;;;;;5031376;28;21060;-69
2022/02/18 11:21:32;;;;;;;0.70;0.50;;;15.40;99.90;;;;;;5037882;28;20433;-70
2022/02/18 11:24:01;;;;;;;0.70;0.50;;;15.30;99.90;;;;;;5052088;28;20519;-69
2022/02/18 11:26:29;;;;;;;0.70;0.50;;;15.30;99.90;;;;;;5052413;28;20170;-69
2022/02/18 11:28:55;;;;;;;0.70;0.50;;;15.30;99.90;;;;;;5052394;28;20413;-71
2022/02/18 11:31:40;;;;;;;0.70;0.60;;;15.30;99.90;;;;;;5052354;28;20554;-69
2022/02/18 11:34:24;;;;;;;0.70;0.50;;;15.30;99.90;;;;;;5052150;28;20410;-69
2022/02/18 11:37:26;;;;;;;0.70;0.50;;;15.30;99.90;;;;;;5033777;28;20421;-68
2022/02/18 11:39:58;;;;;;;0.70;0.50;;;15.30;99.90;;;;;;5031241;28;20457;-69
2022/02/18 11:42:48;;;;;;;0.70;0.50;;;15.30;99.90;;;;;;5031157;28;20411;-69
2022/02/18 11:45:16;;;;;;;0.80;0.70;;;15.30;99.90;;;;;;5031300;28;20414;-69
2022/02/18 11:47:42;;;;;;;0.70;0.50;;;15.40;99.90;;;;;;5032488;28;20409;-68
2022/02/18 11:50:15;;;;;;;0.70;0.50;;;15.40;99.90;;;;;;5047204;28;20768;-70
2022/02/18 11:52:46;;;;;;;0.70;0.50;;;15.50;99.90;;;;;;5052145;28;20397;-69
2022/02/18 11:55:29;;;;;;;0.70;0.50;;;15.50;99.90;;;;;;5052284;28;20425;-69
2022/02/18 11:58:13;;;;;;;0.70;0.50;;;15.60;99.90;;;;;;5052012;28;20789;-69
2022/02/18 12:00:45;;;;;;;0.70;0.50;;;15.60;99.90;;;;;;5049382;28;20437;-69
2022/02/18 12:03:21;;;;;;;0.70;0.50;;;15.70;99.90;;;;;;5052185;28;20390;-69
2022/02/18 12:06:06;;;;;;;0.70;0.50;;;15.60;99.90;;;;;;5052292;28;20496;-70
2022/02/18 12:08:34;;;;;;;0.70;0.50;;;15.70;99.90;;;;;;5052050;28;20405;-70
2022/02/18 12:11:07;;;;;;;0.70;0.50;;;15.70;99.90;;;;;;5051850;28;20425;-70
2022/02/18 12:13:51;;;;;;;0.70;0.50;;;15.80;99.90;;;;;;5050622;28;20409;-69
2022/02/18 12:16:17;;;;;;;0.70;0.50;;;15.80;99.90;;;;;;5032187;28;20460;-70
2022/02/18 12:18:59;;;;;;;0.70;0.50;;;15.80;99.90;;;;;;5032192;28;20460;-67
2022/02/18 12:21:25;;;;;;;0.70;0.50;;;15.80;99.90;;;;;;5031527;28;20997;-68
2022/02/18 12:23:50;;;;;;;0.70;0.50;;;15.80;99.90;;;;;;5046002;28;20505;-69
2022/02/18 12:26:19;;;;;;;0.70;0.50;;;15.90;99.90;;;;;;5035149;28;20172;-69
2022/02/18 12:28:46;;;;;;;0.70;0.50;;;15.90;99.90;;;;;;5050260;28;20546;-70
2022/02/18 12:31:12;;;;;;;0.70;0.50;;;16.00;99.90;;;;;;5052308;28;20513;-69
2022/02/18 12:33:38;;;;;;;0.70;0.50;;;16.00;99.90;;;;;;5051947;28;20953;-71
2022/02/18 12:36:17;;;;;;;0.70;0.50;;;16.00;99.90;;;;;;5038350;28;20656;-70
2022/02/18 12:38:44;;;;;;;0.70;0.50;;;16.00;99.90;;;;;;5024840;28;20523;-69
2022/02/18 12:41:15;;;;;;;0.70;0.50;;;16.00;99.90;;;;;;5040167;28;20434;-70
2022/02/18 12:43:43;;;;;;;0.80;0.60;;;16.00;99.90;;;;;;5035574;28;20432;-71
2022/02/18 12:46:12;;;;;;;0.70;0.50;;;16.10;99.90;;;;;;5035607;28;20540;-70
2022/02/18 12:48:43;;;;;;;0.70;0.50;;;16.10;99.90;;;;;;5037199;28;20965;-70
2022/02/18 12:51:15;;;;;;;0.70;0.50;;;16.20;99.90;;;;;;5035204;28;20580;-71
2022/02/18 12:53:43;;;;;;;0.70;0.50;;;16.30;99.90;;;;;;5045544;28;20440;-70